Time;durP1;ratioP1;P1;durP2;ratioP2;P2;SDS_P1;SDS_P2;PMS_P1;PMS_P2;Temp;Humidity;BMP_temperature;BMP_pressure;BME280_temperature;BME280_humidity;BME280_pressure;Samples;Min_cycle;Max_cycle;Signal;HPM_P1;HPM_P2
2023/07/15 00:01:08;;;;;;;6.00;5.33;;;;;;;;;;730613;189;918609;-61
2023/07/15 00:03:34;;;;;;;7.07;5.43;;;;;;;;;;742911;187;918861;-60
2023/07/15 00:06:00;;;;;;;6.10;5.47;;;;;;;;;;736461;187;919422;-62
2023/07/15 00:08:27;;;;;;;7.20;5.63;;;;;;;;;;740493;187;919077;-60
2023/07/15 00:10:52;;;;;;;6.03;5.07;;;;;;;;;;741869;188;919111;-62
2023/07/15 00:13:18;;;;;;;7.17;5.40;;;;;;;;;;735861;188;918312;-61
2023/07/15 00:15:43;;;;;;;7.10;6.00;;;;;;;;;;729051;187;921195;-62
2023/07/15 00:18:09;;;;;;;6.43;5.83;;;;;;;;;;733975;189;918923;-60
2023/07/15 00:20:35;;;;;;;7.63;4.90;;;;;;;;;;736192;189;919142;-60
2023/07/15 00:23:01;;;;;;;6.50;5.87;;;;;;;;;;735094;188;922982;-60
2023/07/15 00:25:27;;;;;;;8.20;5.53;;;;;;;;;;740483;187;920322;-62
2023/07/15 00:27:53;;;;;;;6.87;5.63;;;;;;;;;;739107;188;923191;-60
2023/07/15 00:30:19;;;;;;;5.73;4.93;;;;;;;;;;734107;188;819052;-61
2023/07/15 00:32:45;;;;;;;8.13;5.70;;;;;;;;;;715456;194;917412;-62
2023/07/15 00:35:20;;;;;;;8.13;4.70;;;;;;;;;;733244;189;922892;-62
2023/07/15 00:37:47;;;;;;;6.80;5.43;;;;;;;;;;744505;185;920262;-61
2023/07/15 00:40:12;;;;;;;7.10;5.50;;;;;;;;;;730585;191;816502;-60
2023/07/15 00:42:39;;;;;;;5.20;4.70;;;;;;;;;;713117;191;919220;-60
2023/07/15 00:45:04;;;;;;;8.60;6.03;;;;;;;;;;734475;191;815614;-60
2023/07/15 00:47:31;;;;;;;6.63;5.30;;;;;;;;;;739358;187;921015;-60
2023/07/15 00:49:57;;;;;;;7.33;5.30;;;;;;;;;;732745;188;935768;-60
2023/07/15 00:52:23;;;;;;;6.60;5.93;;;;;;;;;;746608;187;842860;-60
2023/07/15 00:54:52;;;;;;;7.17;6.20;;;;;;;;;;737025;187;918626;-61
2023/07/15 00:57:17;;;;;;;8.53;5.60;;;;;;;;;;736673;187;915947;-59
2023/07/15 00:59:43;;;;;;;7.78;6.25;;;;;;;;;;736007;187;919702;-62
2023/07/15 01:02:09;;;;;;;6.40;5.40;;;;;;;;;;740278;188;918148;-59
2023/07/15 01:04:35;;;;;;;7.03;5.80;;;;;;;;;;737325;188;919097;-61
2023/07/15 01:07:01;;;;;;;6.23;5.60;;;;;;;;;;734022;187;919528;-62
2023/07/15 01:09:27;;;;;;;10.20;6.57;;;;;;;;;;732664;192;919192;-60
2023/07/15 01:11:52;;;;;;;8.60;7.00;;;;;;;;;;713308;195;916782;-62
2023/07/15 01:14:18;;;;;;;7.50;6.63;;;;;;;;;;731412;187;919921;-60
2023/07/15 01:16:47;;;;;;;8.43;5.60;;;;;;;;;;742333;187;919026;-60
2023/07/15 01:19:10;;;;;;;8.73;5.63;;;;;;;;;;741623;187;919712;-60
2023/07/15 01:21:36;;;;;;;7.50;5.10;;;;;;;;;;736806;187;918661;-60
2023/07/15 01:24:02;;;;;;;13.40;5.27;;;;;;;;;;733690;189;919040;-61
2023/07/15 01:26:27;;;;;;;7.27;5.30;;;;;;;;;;741145;189;918893;-59
2023/07/15 01:28:53;;;;;;;6.77;5.40;;;;;;;;;;735693;189;919145;-62
2023/07/15 01:31:19;;;;;;;12.68;5.40;;;;;;;;;;740057;188;919530;-60
2023/07/15 01:33:45;;;;;;;9.70;5.70;;;;;;;;;;742223;188;917764;-61
2023/07/15 01:36:11;;;;;;;7.13;5.43;;;;;;;;;;731016;188;920730;-61
2023/07/15 01:38:37;;;;;;;6.50;5.80;;;;;;;;;;735088;187;918880;-62
2023/07/15 01:41:03;;;;;;;12.53;6.30;;;;;;;;;;741156;189;920244;-62
2023/07/15 01:43:28;;;;;;;9.17;5.90;;;;;;;;;;734876;189;919601;-59
2023/07/15 01:45:54;;;;;;;7.73;6.73;;;;;;;;;;736054;188;919714;-61
2023/07/15 01:48:20;;;;;;;8.20;6.13;;;;;;;;;;713885;195;918999;-62
2023/07/15 01:50:46;;;;;;;7.10;5.87;;;;;;;;;;731181;188;920248;-59
2023/07/15 01:53:12;;;;;;;6.50;5.80;;;;;;;;;;732095;188;918186;-62
2023/07/15 01:55:38;;;;;;;6.90;5.37;;;;;;;;;;715128;195;920845;-60
2023/07/15 01:58:03;;;;;;;7.63;6.43;;;;;;;;;;737635;188;819319;-62
2023/07/15 02:00:29;;;;;;;8.80;6.10;;;;;;;;;;730711;188;917525;-62
2023/07/15 02:02:55;;;;;;;7.27;6.13;;;;;;;;;;739177;187;920465;-61
2023/07/15 02:05:21;;;;;;;7.60;6.47;;;;;;;;;;740292;190;919607;-60
2023/07/15 02:07:48;;;;;;;11.07;6.63;;;;;;;;;;736799;187;918988;-62
2023/07/15 02:10:13;;;;;;;10.50;5.87;;;;;;;;;;736032;188;919286;-62
2023/07/15 02:12:38;;;;;;;7.93;5.47;;;;;;;;;;736180;188;892039;-61
2023/07/15 02:15:05;;;;;;;6.90;5.83;;;;;;;;;;722202;193;918288;-60
2023/07/15 02:17:31;;;;;;;8.07;5.70;;;;;;;;;;744965;187;915134;-61
2023/07/15 02:19:58;;;;;;;9.17;6.27;;;;;;;;;;738734;187;821712;-62
2023/07/15 02:22:22;;;;;;;11.03;6.10;;;;;;;;;;742581;189;918256;-62
2023/07/15 02:24:48;;;;;;;9.30;6.25;;;;;;;;;;735281;188;919217;-62
2023/07/15 02:27:16;;;;;;;7.77;5.80;;;;;;;;;;735006;188;920723;-62
2023/07/15 02:29:40;;;;;;;7.80;6.60;;;;;;;;;;734285;191;916398;-62
2023/07/15 02:32:06;;;;;;;7.07;5.20;;;;;;;;;;712605;196;919254;-62
2023/07/15 02:34:32;;;;;;;7.60;6.57;;;;;;;;;;731630;187;919310;-59
2023/07/15 02:36:58;;;;;;;6.40;5.43;;;;;;;;;;742063;187;921821;-62
2023/07/15 02:39:24;;;;;;;9.13;6.60;;;;;;;;;;739441;187;918805;-62
2023/07/15 02:41:50;;;;;;;11.40;6.10;;;;;;;;;;741443;187;919829;-61
2023/07/15 02:44:16;;;;;;;8.20;6.75;;;;;;;;;;735941;187;919289;-62
2023/07/15 02:46:42;;;;;;;10.13;6.33;;;;;;;;;;739901;187;919438;-62
2023/07/15 02:49:08;;;;;;;9.00;6.53;;;;;;;;;;732957;187;918797;-61
2023/07/15 02:51:33;;;;;;;7.95;6.47;;;;;;;;;;735442;189;921003;-61
2023/07/15 02:54:00;;;;;;;7.70;6.90;;;;;;;;;;741411;188;918402;-62
2023/07/15 02:56:26;;;;;;;7.28;5.95;;;;;;;;;;735457;189;917968;-61
2023/07/15 02:58:51;;;;;;;8.77;6.30;;;;;;;;;;736898;189;919218;-61
2023/07/15 03:01:18;;;;;;;8.15;5.85;;;;;;;;;;742034;188;918893;-62
2023/07/15 03:03:44;;;;;;;7.00;6.30;;;;;;;;;;732388;188;909855;-60
2023/07/15 03:06:12;;;;;;;7.90;6.90;;;;;;;;;;717392;191;921742;-61
2023/07/15 03:08:36;;;;;;;8.65;6.15;;;;;;;;;;735827;188;908896;-62
2023/07/15 03:11:01;;;;;;;8.37;6.70;;;;;;;;;;746320;187;825106;-61
2023/07/15 03:13:27;;;;;;;10.80;7.00;;;;;;;;;;734676;186;922486;-62
2023/07/15 03:15:53;;;;;;;7.93;6.55;;;;;;;;;;736492;189;921952;-62
2023/07/15 03:18:21;;;;;;;10.23;6.90;;;;;;;;;;742696;187;839740;-61
2023/07/15 03:20:45;;;;;;;7.93;6.37;;;;;;;;;;737264;189;915966;-61
2023/07/15 03:23:11;;;;;;;10.70;6.40;;;;;;;;;;735668;189;915806;-63
2023/07/15 03:25:36;;;;;;;8.97;6.90;;;;;;;;;;742012;189;914786;-62
2023/07/15 03:28:02;;;;;;;8.80;7.43;;;;;;;;;;732777;188;913518;-62
2023/07/15 03:30:28;;;;;;;8.80;7.30;;;;;;;;;;738288;188;914376;-61
2023/07/15 03:32:56;;;;;;;7.73;6.50;;;;;;;;;;735725;188;919614;-62
2023/07/15 03:35:20;;;;;;;7.27;6.13;;;;;;;;;;719015;195;914383;-62
2023/07/15 03:37:46;;;;;;;13.37;6.43;;;;;;;;;;729210;188;919963;-61
2023/07/15 03:40:12;;;;;;;11.53;7.33;;;;;;;;;;727824;189;921627;-62
2023/07/15 03:42:38;;;;;;;8.27;6.83;;;;;;;;;;740860;189;914373;-62
2023/07/15 03:45:05;;;;;;;8.60;7.50;;;;;;;;;;734219;189;915348;-62
2023/07/15 03:47:30;;;;;;;9.50;7.20;;;;;;;;;;737378;189;914423;-61
2023/07/15 03:49:56;;;;;;;9.07;8.03;;;;;;;;;;731413;192;911927;-61
2023/07/15 03:52:21;;;;;;;8.80;7.90;;;;;;;;;;713470;192;912921;-61
2023/07/15 03:54:47;;;;;;;12.67;7.37;;;;;;;;;;714099;194;916443;-60
2023/07/15 03:57:13;;;;;;;9.03;8.07;;;;;;;;;;731881;189;914401;-61
2023/07/15 03:59:39;;;;;;;8.93;7.70;;;;;;;;;;743238;187;915901;-62
2023/07/15 04:02:05;;;;;;;12.07;6.60;;;;;;;;;;732009;188;915074;-61
2023/07/15 04:04:31;;;;;;;10.83;7.77;;;;;;;;;;735395;189;894320;-61
2023/07/15 04:06:56;;;;;;;9.10;8.20;;;;;;;;;;730013;191;919768;-62
2023/07/15 04:09:22;;;;;;;11.80;8.10;;;;;;;;;;714190;194;919529;-62
2023/07/15 04:11:48;;;;;;;10.17;8.13;;;;;;;;;;721801;193;915142;-61
2023/07/15 04:14:14;;;;;;;11.50;7.77;;;;;;;;;;740948;188;816687;-60
2023/07/15 04:16:40;;;;;;;9.23;6.90;;;;;;;;;;738085;188;846416;-62
2023/07/15 04:19:06;;;;;;;11.00;6.68;;;;;;;;;;712848;194;920546;-63
2023/07/15 04:21:31;;;;;;;12.00;6.37;;;;;;;;;;737140;188;923244;-62
2023/07/15 04:23:57;;;;;;;11.43;7.47;;;;;;;;;;734394;188;920732;-63
2023/07/15 04:26:23;;;;;;;10.50;8.20;;;;;;;;;;738428;186;918454;-62
2023/07/15 04:28:49;;;;;;;11.20;7.50;;;;;;;;;;746633;187;816884;-62
2023/07/15 04:31:15;;;;;;;8.70;6.93;;;;;;;;;;743482;188;816979;-62
2023/07/15 04:33:41;;;;;;;9.47;7.13;;;;;;;;;;734229;189;918919;-63
2023/07/15 04:36:06;;;;;;;9.20;7.47;;;;;;;;;;733217;189;919431;-62
2023/07/15 04:38:32;;;;;;;11.93;7.20;;;;;;;;;;739612;188;919456;-63
2023/07/15 04:40:58;;;;;;;7.83;6.87;;;;;;;;;;717591;194;919103;-62
2023/07/15 04:43:24;;;;;;;10.40;7.40;;;;;;;;;;717565;191;939149;-64
2023/07/15 04:45:50;;;;;;;8.90;6.27;;;;;;;;;;720705;191;927574;-62
2023/07/15 04:48:16;;;;;;;9.90;5.97;;;;;;;;;;716742;191;920480;-63
2023/07/15 04:50:41;;;;;;;7.57;5.70;;;;;;;;;;717731;194;917195;-63
2023/07/15 04:53:07;;;;;;;7.40;5.53;;;;;;;;;;714578;194;919188;-62
2023/07/15 04:55:33;;;;;;;6.57;5.80;;;;;;;;;;722407;194;919336;-63
2023/07/15 04:57:59;;;;;;;11.57;5.90;;;;;;;;;;732279;188;918941;-64
2023/07/15 05:00:27;;;;;;;9.17;5.93;;;;;;;;;;736939;189;851641;-65
2023/07/15 05:02:51;;;;;;;8.17;6.00;;;;;;;;;;737569;189;813894;-63
2023/07/15 05:05:17;;;;;;;13.30;5.33;;;;;;;;;;736134;187;824653;-64
2023/07/15 05:07:43;;;;;;;8.23;5.23;;;;;;;;;;735160;188;922149;-65
2023/07/15 05:10:09;;;;;;;5.90;4.30;;;;;;;;;;730138;190;916243;-64
2023/07/15 05:12:35;;;;;;;5.63;4.77;;;;;;;;;;712447;193;919149;-65
2023/07/15 05:15:01;;;;;;;6.43;4.73;;;;;;;;;;734582;187;919306;-65
2023/07/15 05:17:26;;;;;;;8.30;5.10;;;;;;;;;;738843;187;819557;-65
2023/07/15 05:19:52;;;;;;;13.77;5.33;;;;;;;;;;738697;189;868638;-63
2023/07/15 05:22:18;;;;;;;7.57;4.33;;;;;;;;;;736156;187;919226;-63
2023/07/15 05:24:44;;;;;;;7.10;4.30;;;;;;;;;;737000;187;815858;-65
2023/07/15 05:27:10;;;;;;;25.20;7.30;;;;;;;;;;739714;189;918521;-63
2023/07/15 05:29:36;;;;;;;15.83;5.60;;;;;;;;;;717222;192;920109;-65
2023/07/15 05:32:01;;;;;;;6.53;4.97;;;;;;;;;;741524;186;917079;-63
2023/07/15 05:34:27;;;;;;;5.70;4.20;;;;;;;;;;740432;188;916936;-63
2023/07/15 05:36:53;;;;;;;28.60;6.20;;;;;;;;;;734452;188;916111;-64
2023/07/15 05:39:19;;;;;;;14.93;6.17;;;;;;;;;;734255;188;915130;-63
2023/07/15 05:41:45;;;;;;;9.37;5.07;;;;;;;;;;711893;194;917389;-65
2023/07/15 05:44:11;;;;;;;10.30;4.17;;;;;;;;;;736303;188;920305;-61
2023/07/15 05:46:36;;;;;;;8.90;4.57;;;;;;;;;;734852;189;881517;-64
2023/07/15 05:49:04;;;;;;;22.20;5.40;;;;;;;;;;737369;188;918801;-63
2023/07/15 05:51:28;;;;;;;9.17;4.40;;;;;;;;;;740527;189;918913;-64
2023/07/15 05:53:54;;;;;;;7.10;4.33;;;;;;;;;;733483;188;919100;-64
2023/07/15 05:56:20;;;;;;;6.20;4.77;;;;;;;;;;729613;190;1020892;-64
2023/07/15 05:58:46;;;;;;;8.30;4.67;;;;;;;;;;739543;188;919332;-63
2023/07/15 06:01:11;;;;;;;14.97;5.40;;;;;;;;;;734842;188;919265;-64
2023/07/15 06:03:37;;;;;;;4.87;3.43;;;;;;;;;;730253;189;919499;-64
2023/07/15 06:06:04;;;;;;;8.33;4.23;;;;;;;;;;745648;187;925050;-64
2023/07/15 06:08:31;;;;;;;10.50;5.00;;;;;;;;;;737225;187;917917;-63
2023/07/15 06:10:56;;;;;;;9.23;4.57;;;;;;;;;;734553;187;920900;-64
2023/07/15 06:13:21;;;;;;;12.37;5.12;;;;;;;;;;726625;190;921173;-62
2023/07/15 06:15:47;;;;;;;6.90;3.97;;;;;;;;;;716582;195;920202;-61
2023/07/15 06:18:13;;;;;;;7.50;3.67;;;;;;;;;;726679;188;923661;-63
2023/07/15 06:20:40;;;;;;;6.03;3.73;;;;;;;;;;731109;187;919187;-62
2023/07/15 06:23:05;;;;;;;5.50;3.30;;;;;;;;;;741105;189;817402;-61
2023/07/15 06:25:31;;;;;;;5.47;3.80;;;;;;;;;;736440;189;816152;-60
2023/07/15 06:27:57;;;;;;;6.40;3.80;;;;;;;;;;721190;191;816082;-60
2023/07/15 06:30:23;;;;;;;6.23;4.07;;;;;;;;;;719526;194;919595;-61
2023/07/15 06:32:50;;;;;;;8.57;4.40;;;;;;;;;;740348;187;918954;-63
2023/07/15 06:35:16;;;;;;;8.67;4.57;;;;;;;;;;738900;187;816981;-61
2023/07/15 06:37:42;;;;;;;6.30;3.40;;;;;;;;;;739054;187;919551;-60
2023/07/15 06:40:08;;;;;;;7.67;3.67;;;;;;;;;;741051;188;917400;-62
2023/07/15 06:42:34;;;;;;;8.40;4.20;;;;;;;;;;741410;188;818250;-62
2023/07/15 06:45:00;;;;;;;4.20;3.57;;;;;;;;;;728913;188;919290;-61
2023/07/15 06:47:25;;;;;;;4.83;3.60;;;;;;;;;;742967;188;921402;-60
2023/07/15 06:49:51;;;;;;;4.97;3.37;;;;;;;;;;737626;188;787616;-58
2023/07/15 06:52:17;;;;;;;5.00;3.93;;;;;;;;;;740449;187;909614;-62
2023/07/15 06:54:43;;;;;;;8.27;3.67;;;;;;;;;;741755;187;860579;-62
2023/07/15 06:57:09;;;;;;;6.07;4.10;;;;;;;;;;716845;192;916000;-60
2023/07/15 06:59:35;;;;;;;5.70;4.07;;;;;;;;;;720300;193;916792;-61
2023/07/15 07:02:00;;;;;;;5.37;3.73;;;;;;;;;;738768;187;921820;-63
2023/07/15 07:04:26;;;;;;;5.20;3.50;;;;;;;;;;737769;187;918226;-63
2023/07/15 07:06:52;;;;;;;5.77;3.70;;;;;;;;;;739763;187;629752;-64
2023/07/15 07:09:18;;;;;;;7.35;3.40;;;;;;;;;;739933;187;917272;-62
2023/07/15 07:11:44;;;;;;;3.70;2.90;;;;;;;;;;745865;188;625645;-62
2023/07/15 07:14:10;;;;;;;9.83;3.37;;;;;;;;;;737833;188;852320;-60
2023/07/15 07:16:35;;;;;;;4.40;3.47;;;;;;;;;;735086;189;918714;-64
2023/07/15 07:19:01;;;;;;;8.13;3.30;;;;;;;;;;715799;195;918919;-63
2023/07/15 07:21:27;;;;;;;5.47;3.87;;;;;;;;;;735660;187;919173;-63
2023/07/15 07:23:55;;;;;;;4.40;3.30;;;;;;;;;;741223;188;909765;-61
2023/07/15 07:26:19;;;;;;;8.00;3.90;;;;;;;;;;740374;187;807647;-61
2023/07/15 07:28:45;;;;;;;5.70;4.07;;;;;;;;;;740363;188;912981;-62
2023/07/15 07:31:10;;;;;;;6.63;3.43;;;;;;;;;;735064;187;818218;-63
2023/07/15 07:33:36;;;;;;;10.23;4.30;;;;;;;;;;733899;188;912091;-62
2023/07/15 07:36:03;;;;;;;3.73;3.10;;;;;;;;;;740205;188;920434;-62
2023/07/15 07:38:28;;;;;;;4.93;3.30;;;;;;;;;;735173;186;918520;-62
2023/07/15 07:40:54;;;;;;;4.87;3.37;;;;;;;;;;733461;189;938103;-63
2023/07/15 07:43:20;;;;;;;5.30;3.20;;;;;;;;;;738472;189;918712;-60
2023/07/15 07:45:46;;;;;;;9.50;3.67;;;;;;;;;;735291;189;817115;-60
2023/07/15 07:48:11;;;;;;;5.90;3.60;;;;;;;;;;721139;192;818001;-63
2023/07/15 07:50:37;;;;;;;4.82;3.42;;;;;;;;;;712914;194;919155;-64
2023/07/15 07:53:03;;;;;;;4.87;3.57;;;;;;;;;;720002;195;920670;-60
2023/07/15 07:55:29;;;;;;;5.33;3.97;;;;;;;;;;714073;193;932275;-60
2023/07/15 07:57:55;;;;;;;5.00;3.60;;;;;;;;;;743488;187;899389;-63
2023/07/15 08:00:21;;;;;;;4.37;3.03;;;;;;;;;;741493;189;915129;-62
2023/07/15 08:02:46;;;;;;;4.83;4.00;;;;;;;;;;738058;187;916104;-61
2023/07/15 08:05:13;;;;;;;5.37;3.00;;;;;;;;;;734860;188;911251;-64
2023/07/15 08:07:39;;;;;;;4.80;3.40;;;;;;;;;;742997;187;917645;-64
2023/07/15 08:10:05;;;;;;;4.00;3.20;;;;;;;;;;735919;187;920025;-64
2023/07/15 08:12:31;;;;;;;5.20;3.17;;;;;;;;;;733403;187;919947;-61
2023/07/15 08:14:57;;;;;;;6.20;3.03;;;;;;;;;;738936;187;919125;-65
2023/07/15 08:17:23;;;;;;;6.00;3.70;;;;;;;;;;736470;187;918419;-60
2023/07/15 08:19:49;;;;;;;5.10;3.43;;;;;;;;;;736558;187;918034;-59
2023/07/15 08:22:14;;;;;;;5.57;3.42;;;;;;;;;;736245;188;918946;-64
2023/07/15 08:24:40;;;;;;;6.80;2.70;;;;;;;;;;730777;190;902650;-60
2023/07/15 08:27:06;;;;;;;6.53;3.10;;;;;;;;;;714734;194;920079;-61
2023/07/15 08:29:32;;;;;;;5.20;3.63;;;;;;;;;;732273;187;920084;-60
2023/07/15 08:31:58;;;;;;;4.63;3.63;;;;;;;;;;743097;187;918798;-62
2023/07/15 08:34:24;;;;;;;4.53;3.43;;;;;;;;;;734869;188;917934;-62
2023/07/15 08:36:51;;;;;;;17.13;4.83;;;;;;;;;;737277;188;919822;-62
2023/07/15 08:39:16;;;;;;;6.47;3.47;;;;;;;;;;741375;187;918920;-65
2023/07/15 08:41:42;;;;;;;4.90;3.43;;;;;;;;;;745556;185;918320;-61
2023/07/15 08:44:08;;;;;;;4.10;3.23;;;;;;;;;;738552;187;919568;-61
2023/07/15 08:46:34;;;;;;;3.90;3.30;;;;;;;;;;741520;187;889662;-61
2023/07/15 08:48:59;;;;;;;5.90;3.80;;;;;;;;;;738442;187;919111;-64
2023/07/15 08:51:25;;;;;;;4.67;3.33;;;;;;;;;;735250;187;919410;-61
2023/07/15 08:53:51;;;;;;;4.77;3.23;;;;;;;;;;737882;187;815145;-61
2023/07/15 08:56:17;;;;;;;4.13;3.13;;;;;;;;;;740256;188;814903;-61
2023/07/15 08:58:43;;;;;;;5.30;2.83;;;;;;;;;;714844;193;869881;-67
2023/07/15 09:01:09;;;;;;;5.47;3.40;;;;;;;;;;719588;191;916967;-66
2023/07/15 09:03:35;;;;;;;4.77;3.10;;;;;;;;;;725100;194;713723;-66
2023/07/15 09:06:01;;;;;;;5.20;3.10;;;;;;;;;;717508;194;892067;-65
2023/07/15 09:08:26;;;;;;;6.73;3.20;;;;;;;;;;719043;194;918754;-65
2023/07/15 09:10:54;;;;;;;8.07;3.37;;;;;;;;;;718436;192;919111;-61
2023/07/15 09:13:28;;;;;;;4.30;3.23;;;;;;;;;;742802;187;817708;-61
2023/07/15 09:15:54;;;;;;;6.93;3.30;;;;;;;;;;737859;187;815183;-63
2023/07/15 09:18:19;;;;;;;4.60;2.70;;;;;;;;;;735260;188;915448;-64
2023/07/15 09:20:45;;;;;;;4.43;2.60;;;;;;;;;;729386;188;919278;-60
2023/07/15 09:23:11;;;;;;;5.33;3.23;;;;;;;;;;749478;184;810517;-62
2023/07/15 09:25:37;;;;;;;3.93;2.93;;;;;;;;;;730433;188;919186;-61
2023/07/15 09:28:03;;;;;;;3.47;2.50;;;;;;;;;;737630;189;815614;-61
2023/07/15 09:30:29;;;;;;;6.57;3.83;;;;;;;;;;739217;188;923602;-65
2023/07/15 09:32:55;;;;;;;6.50;3.20;;;;;;;;;;736222;188;919914;-68
2023/07/15 09:35:21;;;;;;;3.33;2.47;;;;;;;;;;735330;188;921703;-63
2023/07/15 09:37:47;;;;;;;4.03;2.90;;;;;;;;;;714971;195;857117;-62
2023/07/15 09:40:13;;;;;;;14.00;3.47;;;;;;;;;;737473;189;908419;-63
2023/07/15 09:42:44;;;;;;;6.20;3.10;;;;;;;;;;736490;189;882740;-62
2023/07/15 09:45:10;;;;;;;3.78;2.45;;;;;;;;;;735482;187;920770;-66
2023/07/15 09:47:36;;;;;;;4.20;3.27;;;;;;;;;;735209;188;919990;-61
2023/07/15 09:50:02;;;;;;;4.00;3.20;;;;;;;;;;734066;188;919497;-62
2023/07/15 09:52:28;;;;;;;5.47;3.20;;;;;;;;;;734868;188;918262;-66
2023/07/15 09:54:54;;;;;;;5.40;3.20;;;;;;;;;;730077;191;919287;-61
2023/07/15 09:57:20;;;;;;;3.40;2.40;;;;;;;;;;708144;195;818462;-63
2023/07/15 09:59:46;;;;;;;4.70;2.83;;;;;;;;;;722491;189;919108;-61
2023/07/15 10:02:21;;;;;;;3.90;2.87;;;;;;;;;;743384;188;916433;-65
2023/07/15 10:04:47;;;;;;;7.97;3.60;;;;;;;;;;737793;188;908685;-63
2023/07/15 10:07:13;;;;;;;7.00;3.30;;;;;;;;;;737100;189;819548;-62
2023/07/15 10:09:39;;;;;;;5.90;2.70;;;;;;;;;;737705;189;817671;-65
2023/07/15 10:12:05;;;;;;;5.33;2.90;;;;;;;;;;741794;188;886769;-61
2023/07/15 10:14:31;;;;;;;4.10;2.80;;;;;;;;;;741967;188;902086;-62
2023/07/15 10:17:03;;;;;;;4.57;3.37;;;;;;;;;;746412;186;817429;-62
2023/07/15 10:19:35;;;;;;;5.43;3.20;;;;;;;;;;735130;187;817991;-66
2023/07/15 10:22:01;;;;;;;5.50;3.20;;;;;;;;;;745053;187;815988;-62
2023/07/15 10:24:26;;;;;;;3.63;2.33;;;;;;;;;;748381;187;817002;-65
2023/07/15 10:26:52;;;;;;;5.23;2.97;;;;;;;;;;736401;187;817668;-65
2023/07/15 10:29:18;;;;;;;4.73;3.10;;;;;;;;;;736092;187;885076;-61
2023/07/15 10:31:44;;;;;;;3.37;2.27;;;;;;;;;;743563;188;820620;-67
2023/07/15 10:34:10;;;;;;;6.13;2.50;;;;;;;;;;715462;193;918524;-66
2023/07/15 10:36:36;;;;;;;3.97;2.47;;;;;;;;;;732567;189;919129;-66
2023/07/15 10:39:10;;;;;;;6.23;3.63;;;;;;;;;;729187;192;919623;-62
2023/07/15 10:41:40;;;;;;;6.30;3.50;;;;;;;;;;718905;192;918564;-67
2023/07/15 10:44:06;;;;;;;3.20;2.50;;;;;;;;;;732806;188;952146;-64
2023/07/15 10:46:31;;;;;;;3.37;2.53;;;;;;;;;;736695;188;918952;-67
2023/07/15 10:48:57;;;;;;;4.20;3.00;;;;;;;;;;742196;188;921097;-66
2023/07/15 10:51:23;;;;;;;5.80;3.23;;;;;;;;;;736588;188;918554;-66
2023/07/15 10:53:49;;;;;;;4.60;2.63;;;;;;;;;;727509;191;918310;-63
2023/07/15 10:56:15;;;;;;;4.00;2.70;;;;;;;;;;741820;189;916350;-67
2023/07/15 10:58:41;;;;;;;4.10;2.83;;;;;;;;;;736591;189;916996;-62
2023/07/15 11:01:06;;;;;;;7.23;3.20;;;;;;;;;;718824;192;892366;-68
2023/07/15 11:03:32;;;;;;;3.63;2.70;;;;;;;;;;740106;187;1035656;-68
2023/07/15 11:05:58;;;;;;;3.90;3.10;;;;;;;;;;734682;189;922842;-64
2023/07/15 11:08:24;;;;;;;3.60;2.47;;;;;;;;;;735230;185;925552;-66
2023/07/15 11:10:50;;;;;;;4.30;3.33;;;;;;;;;;741449;187;921569;-67
2023/07/15 11:13:16;;;;;;;3.67;2.73;;;;;;;;;;741417;187;956847;-66
2023/07/15 11:15:41;;;;;;;5.80;3.00;;;;;;;;;;733564;188;814544;-64
2023/07/15 11:18:07;;;;;;;8.70;2.87;;;;;;;;;;738084;189;878689;-63
2023/07/15 11:20:33;;;;;;;4.63;3.07;;;;;;;;;;738103;187;916732;-64
2023/07/15 11:22:59;;;;;;;4.40;2.80;;;;;;;;;;716507;193;919872;-65
2023/07/15 11:25:25;;;;;;;4.00;2.70;;;;;;;;;;742278;187;921200;-63
2023/07/15 11:27:51;;;;;;;4.03;2.50;;;;;;;;;;736127;187;919192;-65
2023/07/15 11:30:17;;;;;;;4.77;2.47;;;;;;;;;;730648;189;878782;-64
2023/07/15 11:32:42;;;;;;;4.10;3.20;;;;;;;;;;739769;187;917106;-63
2023/07/15 11:35:09;;;;;;;4.57;2.40;;;;;;;;;;738309;189;915643;-65
2023/07/15 11:37:35;;;;;;;5.97;3.50;;;;;;;;;;741134;189;820977;-65
2023/07/15 11:40:01;;;;;;;6.83;2.80;;;;;;;;;;733777;188;909123;-69
2023/07/15 11:42:27;;;;;;;4.90;2.67;;;;;;;;;;736352;188;845515;-64
2023/07/15 11:44:52;;;;;;;3.60;2.10;;;;;;;;;;740570;189;919182;-64
2023/07/15 11:47:18;;;;;;;4.20;2.73;;;;;;;;;;733968;188;918636;-62
2023/07/15 11:49:45;;;;;;;3.30;2.50;;;;;;;;;;737230;188;863629;-65
2023/07/15 11:52:10;;;;;;;3.70;2.90;;;;;;;;;;737511;188;816992;-66
2023/07/15 11:54:36;;;;;;;4.67;2.63;;;;;;;;;;731114;189;818854;-66
2023/07/15 11:57:02;;;;;;;6.23;3.40;;;;;;;;;;743583;187;918559;-64
2023/07/15 11:59:29;;;;;;;3.43;2.67;;;;;;;;;;739508;187;920211;-64
2023/07/15 12:01:54;;;;;;;4.80;2.80;;;;;;;;;;741065;188;921160;-64
2023/07/15 12:04:20;;;;;;;4.20;2.73;;;;;;;;;;742563;187;919342;-64
2023/07/15 12:06:47;;;;;;;9.53;2.90;;;;;;;;;;736032;188;934990;-64
2023/07/15 12:09:12;;;;;;;5.60;2.57;;;;;;;;;;742146;189;917694;-63
2023/07/15 12:11:38;;;;;;;4.70;2.73;;;;;;;;;;735377;189;919099;-67
2023/07/15 12:14:04;;;;;;;8.00;2.80;;;;;;;;;;738672;189;913598;-65
2023/07/15 12:16:30;;;;;;;4.67;2.80;;;;;;;;;;742240;187;815818;-65
2023/07/15 12:18:56;;;;;;;4.60;3.20;;;;;;;;;;733875;189;919409;-63
2023/07/15 12:21:21;;;;;;;4.83;3.20;;;;;;;;;;739924;185;919770;-65
2023/07/15 12:23:47;;;;;;;3.40;2.57;;;;;;;;;;738254;188;925010;-63
2023/07/15 12:26:13;;;;;;;3.47;2.63;;;;;;;;;;737130;189;922792;-65
2023/07/15 12:28:39;;;;;;;5.15;3.10;;;;;;;;;;731013;188;916238;-63
2023/07/15 12:31:05;;;;;;;5.33;2.70;;;;;;;;;;735090;187;915813;-65
2023/07/15 12:33:31;;;;;;;3.33;2.70;;;;;;;;;;739628;189;816645;-64
2023/07/15 12:35:56;;;;;;;4.00;2.90;;;;;;;;;;738559;188;824707;-63
2023/07/15 12:38:22;;;;;;;4.40;2.80;;;;;;;;;;739723;187;822329;-65
2023/07/15 12:40:48;;;;;;;4.43;2.80;;;;;;;;;;720419;195;921431;-66
2023/07/15 12:43:14;;;;;;;3.93;2.53;;;;;;;;;;733766;187;827062;-64
2023/07/15 12:45:40;;;;;;;6.17;3.07;;;;;;;;;;735229;188;912976;-65
2023/07/15 12:48:06;;;;;;;5.20;3.10;;;;;;;;;;735013;188;918839;-64
2023/07/15 12:50:32;;;;;;;5.33;2.70;;;;;;;;;;739783;188;919732;-65
2023/07/15 12:52:57;;;;;;;4.07;2.93;;;;;;;;;;735228;188;917172;-64
2023/07/15 12:55:23;;;;;;;3.53;2.57;;;;;;;;;;731396;188;867656;-65
2023/07/15 12:57:49;;;;;;;3.47;2.63;;;;;;;;;;739471;188;919917;-64
2023/07/15 13:00:15;;;;;;;4.70;2.43;;;;;;;;;;736421;188;919208;-63
2023/07/15 13:02:41;;;;;;;3.57;2.80;;;;;;;;;;738122;188;816918;-62
2023/07/15 13:05:07;;;;;;;3.70;2.53;;;;;;;;;;742664;187;919350;-64
2023/07/15 13:07:33;;;;;;;7.20;2.70;;;;;;;;;;739660;187;924207;-64
2023/07/15 13:09:58;;;;;;;4.13;2.50;;;;;;;;;;735616;189;816071;-65
2023/07/15 13:12:24;;;;;;;5.37;2.87;;;;;;;;;;734978;188;918402;-64
2023/07/15 13:14:50;;;;;;;4.17;2.67;;;;;;;;;;741915;186;919209;-63
2023/07/15 13:17:16;;;;;;;7.67;2.70;;;;;;;;;;738069;187;918525;-65
2023/07/15 13:19:42;;;;;;;3.60;2.27;;;;;;;;;;735284;189;918869;-64
2023/07/15 13:22:08;;;;;;;3.30;2.63;;;;;;;;;;739963;189;919740;-63
2023/07/15 13:24:33;;;;;;;4.97;2.80;;;;;;;;;;715840;192;1014719;-64
2023/07/15 13:26:59;;;;;;;5.07;2.70;;;;;;;;;;716663;191;824988;-65
2023/07/15 13:29:25;;;;;;;6.33;3.10;;;;;;;;;;720665;191;926930;-63
2023/07/15 13:31:51;;;;;;;5.33;3.00;;;;;;;;;;738566;187;923551;-64
2023/07/15 13:34:17;;;;;;;5.07;3.80;;;;;;;;;;737570;187;818628;-63
2023/07/15 13:36:43;;;;;;;5.90;3.30;;;;;;;;;;741618;187;818879;-64
2023/07/15 13:39:09;;;;;;;6.17;3.00;;;;;;;;;;742100;186;898941;-63
2023/07/15 13:41:34;;;;;;;4.87;2.77;;;;;;;;;;739431;187;854356;-64
2023/07/15 13:44:00;;;;;;;4.05;3.08;;;;;;;;;;714247;193;918097;-64
2023/07/15 13:46:26;;;;;;;5.10;3.00;;;;;;;;;;739340;189;906104;-63
2023/07/15 13:48:52;;;;;;;3.30;2.53;;;;;;;;;;738453;188;832181;-66
2023/07/15 13:51:18;;;;;;;4.10;2.50;;;;;;;;;;719512;192;958842;-64
2023/07/15 13:53:44;;;;;;;3.80;3.00;;;;;;;;;;724585;190;803305;-64
2023/07/15 13:56:09;;;;;;;6.83;3.07;;;;;;;;;;719607;191;812456;-63
2023/07/15 13:58:35;;;;;;;4.10;2.70;;;;;;;;;;738499;187;959342;-65
2023/07/15 14:01:02;;;;;;;4.73;2.90;;;;;;;;;;742015;188;627174;-64
2023/07/15 14:03:27;;;;;;;6.83;3.20;;;;;;;;;;739306;186;673725;-65
2023/07/15 14:05:53;;;;;;;6.60;3.37;;;;;;;;;;739312;188;751463;-64
2023/07/15 14:08:19;;;;;;;5.53;2.67;;;;;;;;;;734876;188;917919;-65
2023/07/15 14:10:45;;;;;;;6.30;3.07;;;;;;;;;;721516;194;921934;-64
2023/07/15 14:13:10;;;;;;;4.07;3.20;;;;;;;;;;729970;191;919078;-63
2023/07/15 14:15:36;;;;;;;4.25;2.50;;;;;;;;;;734565;188;923287;-64
2023/07/15 14:18:05;;;;;;;4.70;3.00;;;;;;;;;;742881;187;818432;-62
2023/07/15 14:20:28;;;;;;;3.90;2.57;;;;;;;;;;732572;188;900403;-64